Time;durP1;ratioP1;P1;durP2;ratioP2;P2;SDS_P1;SDS_P2;PMS_P1;PMS_P2;Temp;Humidity;BMP_temperature;BMP_pressure;BME280_temperature;BME280_humidity;BME280_pressure;Samples;Min_cycle;Max_cycle;Signal;HPM_P1;HPM_P2
2022/08/22 00:01:42;;;;;;;6.13;3.10;;;17.60;90.10;;;;;;5068016;28;20031;-68
2022/08/22 00:04:27;;;;;;;6.22;2.88;;;17.50;90.00;;;;;;5070472;28;20036;-68
2022/08/22 00:07:19;;;;;;;4.28;2.90;;;17.50;90.10;;;;;;5074249;28;20722;-68
2022/08/22 00:09:54;;;;;;;4.70;3.03;;;17.50;90.40;;;;;;5072879;28;20040;-68
2022/08/22 00:12:22;;;;;;;3.95;2.60;;;17.40;90.40;;;;;;5070335;28;20036;-68
2022/08/22 00:15:05;;;;;;;5.85;3.17;;;17.40;90.60;;;;;;5074813;28;20032;-68
2022/08/22 00:18:09;;;;;;;6.13;2.75;;;17.40;90.60;;;;;;5062741;28;20032;-68
2022/08/22 00:20:43;;;;;;;8.02;3.28;;;17.40;90.70;;;;;;5061424;28;20020;-68
2022/08/22 00:23:26;;;;;;;4.82;3.00;;;17.30;90.60;;;;;;5068531;28;20047;-68
2022/08/22 00:26:01;;;;;;;4.65;3.05;;;17.30;90.70;;;;;;5067710;28;20548;-68
2022/08/22 00:29:01;;;;;;;5.07;3.28;;;17.30;90.80;;;;;;5068998;28;20032;-68
2022/08/22 00:32:14;;;;;;;5.78;3.15;;;17.20;91.00;;;;;;5050153;28;20109;-68
2022/08/22 00:34:52;;;;;;;5.95;3.40;;;17.20;91.00;;;;;;5066779;28;20555;-68
2022/08/22 00:37:30;;;;;;;5.07;3.17;;;17.20;91.10;;;;;;5062300;28;20052;-68
2022/08/22 00:40:17;;;;;;;5.10;2.85;;;17.10;91.20;;;;;;5063184;28;20032;-68
2022/08/22 00:42:51;;;;;;;6.32;2.80;;;17.10;91.30;;;;;;5072489;28;20020;-68
2022/08/22 00:45:29;;;;;;;3.55;2.97;;;17.10;91.30;;;;;;5067607;28;20054;-68
2022/08/22 00:48:38;;;;;;;5.38;2.90;;;17.00;91.30;;;;;;5073755;28;20067;-68
2022/08/22 00:51:45;;;;;;;5.45;3.00;;;17.00;91.40;;;;;;5049372;28;20044;-68
2022/08/22 00:54:18;;;;;;;3.67;2.73;;;17.00;91.60;;;;;;5033083;28;20059;-68
2022/08/22 00:56:49;;;;;;;5.15;2.88;;;17.00;91.70;;;;;;5066850;28;20035;-68
2022/08/22 00:59:24;;;;;;;4.75;2.70;;;16.90;91.80;;;;;;5065398;28;20055;-68
2022/08/22 01:02:26;;;;;;;4.75;2.78;;;16.90;91.80;;;;;;5069886;28;20058;-68
2022/08/22 01:05:04;;;;;;;6.82;3.08;;;16.90;91.80;;;;;;5067617;28;20123;-68
2022/08/22 01:08:08;;;;;;;6.78;3.03;;;16.90;92.00;;;;;;5068969;28;20691;-68
2022/08/22 01:11:12;;;;;;;4.03;2.90;;;16.90;91.70;;;;;;5071464;28;20032;-68
2022/08/22 01:13:58;;;;;;;3.70;2.75;;;16.80;91.80;;;;;;5076298;28;20733;-68
2022/08/22 01:16:33;;;;;;;2.85;2.40;;;16.80;92.10;;;;;;5066208;28;20466;-68
2022/08/22 01:19:10;;;;;;;3.60;3.08;;;16.80;92.10;;;;;;5069070;28;20051;-68
2022/08/22 01:22:08;;;;;;;7.35;3.17;;;16.80;92.00;;;;;;5071960;28;20397;-68
2022/08/22 01:25:19;;;;;;;5.05;2.90;;;16.80;92.00;;;;;;5073615;28;20468;-68
2022/08/22 01:28:07;;;;;;;5.53;3.50;;;16.80;91.70;;;;;;5065273;28;20113;-68
2022/08/22 01:30:41;;;;;;;4.10;3.00;;;16.80;91.50;;;;;;5072690;28;20123;-68
2022/08/22 01:33:32;;;;;;;7.07;3.35;;;16.70;91.40;;;;;;5077530;28;20198;-67
2022/08/22 01:36:35;;;;;;;3.55;3.25;;;16.70;91.50;;;;;;5078315;28;20659;-68
2022/08/22 01:39:13;;;;;;;5.30;3.50;;;16.60;91.80;;;;;;5075927;28;20670;-68
2022/08/22 01:41:48;;;;;;;4.88;3.50;;;16.50;92.10;;;;;;5070421;28;20032;-67
2022/08/22 01:44:27;;;;;;;6.47;3.65;;;16.50;92.50;;;;;;5075065;28;20705;-67
2022/08/22 01:47:10;;;;;;;4.63;3.45;;;16.50;92.80;;;;;;5068341;28;20461;-67
2022/08/22 01:49:45;;;;;;;6.03;3.72;;;16.50;93.00;;;;;;5074279;28;20032;-67
2022/08/22 01:52:27;;;;;;;7.53;3.90;;;16.50;92.90;;;;;;5067190;28;20473;-67
2022/08/22 01:55:05;;;;;;;9.18;3.58;;;16.50;92.60;;;;;;5064676;28;20093;-68
2022/08/22 01:57:31;;;;;;;4.28;3.33;;;16.50;92.80;;;;;;5071958;28;20032;-69
2022/08/22 02:00:00;;;;;;;5.35;3.70;;;16.50;92.50;;;;;;5071883;28;20020;-68
2022/08/22 02:02:32;;;;;;;8.25;4.13;;;16.40;92.60;;;;;;5072643;28;20032;-68
2022/08/22 02:05:09;;;;;;;5.40;3.30;;;16.40;92.60;;;;;;5069045;28;20466;-68
2022/08/22 02:08:02;;;;;;;8.27;4.10;;;16.40;92.70;;;;;;5067662;28;20471;-68
2022/08/22 02:10:56;;;;;;;12.40;4.22;;;16.30;92.90;;;;;;5067306;28;20039;-69
2022/08/22 02:13:31;;;;;;;8.38;4.53;;;16.30;93.40;;;;;;5072981;28;20024;-68
2022/08/22 02:16:09;;;;;;;7.40;4.90;;;16.30;93.70;;;;;;5071908;28;20883;-68
2022/08/22 02:19:12;;;;;;;7.22;4.68;;;16.40;94.20;;;;;;5070595;28;20055;-68
2022/08/22 02:22:00;;;;;;;9.50;4.50;;;16.40;94.50;;;;;;5044125;28;20036;-68
2022/08/22 02:24:32;;;;;;;7.45;4.72;;;16.40;94.70;;;;;;5070196;28;20047;-68
2022/08/22 02:27:45;;;;;;;8.73;5.07;;;16.50;94.70;;;;;;5068649;28;20066;-68
2022/08/22 02:30:29;;;;;;;8.25;5.03;;;16.50;94.80;;;;;;5062814;28;20539;-68
2022/08/22 02:33:11;;;;;;;4.55;4.07;;;16.50;94.90;;;;;;5067102;28;20145;-68
2022/08/22 02:35:55;;;;;;;5.78;4.13;;;16.50;94.90;;;;;;5071257;28;20051;-68
2022/08/22 02:38:46;;;;;;;4.95;4.00;;;16.50;94.70;;;;;;5074238;28;20036;-69
2022/08/22 02:41:21;;;;;;;4.90;3.17;;;16.60;94.70;;;;;;5069165;28;20119;-68
2022/08/22 02:43:55;;;;;;;6.80;3.93;;;16.60;94.20;;;;;;5066701;28;20515;-68
2022/08/22 02:46:41;;;;;;;5.68;3.58;;;16.60;93.90;;;;;;5066117;28;20061;-68
2022/08/22 02:49:26;;;;;;;4.70;3.50;;;16.60;93.60;;;;;;5064234;28;20519;-68
2022/08/22 02:52:10;;;;;;;4.35;3.33;;;16.60;93.50;;;;;;5067150;28;20087;-68
2022/08/22 02:54:43;;;;;;;4.35;3.80;;;16.50;93.80;;;;;;5070935;28;20602;-68
2022/08/22 02:57:28;;;;;;;5.85;3.58;;;16.50;93.90;;;;;;5069805;28;20052;-68
2022/08/22 03:00:22;;;;;;;3.47;3.08;;;16.50;93.80;;;;;;5078316;28;20052;-68
2022/08/22 03:03:24;;;;;;;4.45;3.70;;;16.50;93.80;;;;;;5067188;28;20037;-68
2022/08/22 03:06:05;;;;;;;3.85;3.17;;;16.50;93.70;;;;;;5065735;28;20067;-68
2022/08/22 03:08:36;;;;;;;4.22;3.10;;;16.40;93.70;;;;;;5068152;28;20135;-68
2022/08/22 03:11:10;;;;;;;4.65;3.30;;;16.40;93.70;;;;;;5067413;28;20400;-68
2022/08/22 03:14:03;;;;;;;5.53;3.22;;;16.30;93.90;;;;;;5069996;28;20039;-68
2022/08/22 03:16:48;;;;;;;6.55;3.30;;;16.30;93.70;;;;;;5067763;28;20028;-68
2022/08/22 03:19:52;;;;;;;4.78;3.50;;;16.30;93.10;;;;;;5072259;28;20037;-68
2022/08/22 03:23:02;;;;;;;4.60;3.03;;;16.20;93.00;;;;;;5074289;28;20492;-68
2022/08/22 03:25:55;;;;;;;5.35;3.58;;;16.20;92.90;;;;;;5065636;28;20052;-68
2022/08/22 03:28:42;;;;;;;4.00;3.05;;;16.10;92.90;;;;;;5065806;28;20127;-68
2022/08/22 03:31:29;;;;;;;3.50;2.92;;;16.00;93.00;;;;;;5070268;28;20613;-68
2022/08/22 03:34:21;;;;;;;4.45;3.30;;;16.00;93.00;;;;;;5070356;28;20523;-68
2022/08/22 03:37:14;;;;;;;5.68;3.13;;;15.90;92.70;;;;;;5073239;28;20220;-67
2022/08/22 03:39:59;;;;;;;4.53;2.78;;;15.90;92.50;;;;;;5075262;28;20743;-68
2022/08/22 03:43:09;;;;;;;4.60;3.08;;;15.80;92.40;;;;;;5079938;28;20528;-68
2022/08/22 03:45:53;;;;;;;3.78;3.25;;;15.80;92.50;;;;;;5074174;28;20115;-68
2022/08/22 03:48:50;;;;;;;4.40;3.20;;;15.70;92.60;;;;;;5073456;28;20024;-67
2022/08/22 03:51:37;;;;;;;5.57;3.85;;;15.70;93.00;;;;;;5073723;28;20489;-68
2022/08/22 03:54:03;;;;;;;9.18;4.45;;;15.70;93.70;;;;;;5067991;28;20119;-67
2022/08/22 03:56:51;;;;;;;6.07;4.75;;;15.70;94.20;;;;;;5068518;28;20054;-68
2022/08/22 03:59:40;;;;;;;8.25;4.47;;;15.70;94.70;;;;;;5068473;28;20036;-68
2022/08/22 04:02:16;;;;;;;5.93;4.82;;;15.80;95.00;;;;;;5063535;28;20036;-68
2022/08/22 04:05:14;;;;;;;5.18;4.50;;;15.80;95.30;;;;;;5061992;28;20799;-68
2022/08/22 04:07:53;;;;;;;8.48;5.13;;;15.90;95.40;;;;;;5062547;28;20032;-68
2022/08/22 04:10:31;;;;;;;5.40;4.45;;;16.00;95.60;;;;;;5071832;28;20110;-69
2022/08/22 04:13:00;;;;;;;6.10;4.93;;;16.00;95.70;;;;;;5068018;28;20078;-68
2022/08/22 04:15:44;;;;;;;7.03;4.10;;;16.10;95.80;;;;;;5068455;28;20039;-68
2022/08/22 04:18:37;;;;;;;6.10;4.03;;;16.10;95.70;;;;;;5071860;28;20059;-68
2022/08/22 04:21:31;;;;;;;4.88;3.90;;;16.10;95.50;;;;;;5064107;28;20182;-68
2022/08/22 04:24:17;;;;;;;5.70;4.00;;;16.10;95.30;;;;;;5069362;28;20088;-68
2022/08/22 04:27:05;;;;;;;4.13;3.65;;;16.20;95.20;;;;;;5079844;28;20034;-68
2022/08/22 04:29:37;;;;;;;3.53;2.83;;;16.20;95.10;;;;;;5072996;28;20036;-68
2022/08/22 04:32:13;;;;;;;3.67;3.38;;;16.20;94.80;;;;;;5068497;28;20770;-68
2022/08/22 04:34:47;;;;;;;;;;;16.20;94.20;;;;;;5066998;28;20028;-68
2022/08/22 04:37:27;;;;;;;6.78;3.47;;;16.20;93.50;;;;;;5066002;28;20391;-68
2022/08/22 04:40:15;;;;;;;4.97;3.47;;;16.20;93.10;;;;;;5065561;28;20033;-68
2022/08/22 04:42:49;;;;;;;4.60;3.30;;;16.10;92.40;;;;;;5065300;28;20536;-68
2022/08/22 04:45:24;;;;;;;5.72;3.05;;;16.10;92.60;;;;;;5067241;28;20029;-68
2022/08/22 04:48:03;;;;;;;6.28;3.50;;;16.00;93.00;;;;;;5069952;28;20023;-68
2022/08/22 04:51:21;;;;;;;6.28;3.22;;;16.00;93.50;;;;;;5070802;28;20038;-69
2022/08/22 04:54:14;;;;;;;4.93;3.50;;;16.10;94.10;;;;;;5042569;28;20063;-68
2022/08/22 04:57:10;;;;;;;4.28;3.40;;;16.20;94.50;;;;;;5065050;28;20037;-69
2022/08/22 04:59:37;;;;;;;3.47;3.15;;;16.20;94.20;;;;;;5063807;28;20043;-68
2022/08/22 05:02:08;;;;;;;5.45;3.70;;;16.30;94.10;;;;;;5062694;28;20036;-68
2022/08/22 05:04:42;;;;;;;4.63;3.30;;;16.30;94.20;;;;;;5065740;28;20293;-68
2022/08/22 05:07:26;;;;;;;4.93;3.63;;;16.30;94.40;;;;;;5068960;28;20040;-68
2022/08/22 05:10:00;;;;;;;5.47;3.63;;;16.40;94.60;;;;;;5082635;28;20093;-68
2022/08/22 05:12:32;;;;;;;6.30;3.40;;;16.50;94.40;;;;;;5072808;28;20043;-68
2022/08/22 05:15:21;;;;;;;5.53;3.63;;;16.60;94.00;;;;;;5071388;28;20041;-68
2022/08/22 05:17:50;;;;;;;4.03;2.88;;;16.60;93.80;;;;;;5067609;28;20067;-68
2022/08/22 05:20:20;;;;;;;6.70;3.45;;;16.70;93.80;;;;;;5067246;28;20178;-68
2022/08/22 05:22:52;;;;;;;7.63;3.78;;;16.70;93.50;;;;;;5065321;28;20028;-68
2022/08/22 05:25:24;;;;;;;4.43;3.20;;;16.80;93.40;;;;;;5074721;28;20025;-68
2022/08/22 05:27:58;;;;;;;8.32;3.88;;;16.80;93.10;;;;;;5071951;28;20039;-68
2022/08/22 05:30:26;;;;;;;6.80;3.10;;;16.90;92.80;;;;;;5072825;28;20043;-68
2022/08/22 05:33:25;;;;;;;4.40;3.28;;;16.90;92.50;;;;;;5069020;28;20029;-68
2022/08/22 05:35:59;;;;;;;6.88;3.55;;;17.00;92.20;;;;;;5067162;28;20111;-68
2022/08/22 05:38:32;;;;;;;4.28;3.35;;;17.00;92.30;;;;;;5066621;28;20035;-68
2022/08/22 05:41:08;;;;;;;4.30;3.13;;;17.00;92.30;;;;;;5063200;28;20079;-68
2022/08/22 05:43:42;;;;;;;5.38;3.65;;;17.00;92.20;;;;;;5071512;28;20027;-68
2022/08/22 05:46:17;;;;;;;5.22;3.20;;;17.10;92.20;;;;;;5071107;28;20072;-68
2022/08/22 05:48:55;;;;;;;5.90;3.30;;;17.10;92.40;;;;;;5071807;28;20093;-68
2022/08/22 05:51:36;;;;;;;3.42;3.08;;;17.10;92.60;;;;;;5070853;28;20493;-68
2022/08/22 05:54:13;;;;;;;5.63;2.97;;;17.10;92.90;;;;;;5067868;28;20047;-68
2022/08/22 05:56:48;;;;;;;4.68;3.13;;;17.20;93.00;;;;;;5066433;28;20029;-68
2022/08/22 05:59:24;;;;;;;5.30;3.10;;;17.20;93.00;;;;;;5070658;28;20039;-68
2022/08/22 06:02:01;;;;;;;3.63;3.30;;;17.30;93.10;;;;;;5074429;28;20131;-68
2022/08/22 06:04:35;;;;;;;3.25;2.95;;;17.40;93.20;;;;;;5082811;28;20024;-68
2022/08/22 06:07:24;;;;;;;4.95;3.40;;;17.40;93.30;;;;;;5077831;28;20036;-68
2022/08/22 06:10:18;;;;;;;6.55;3.08;;;17.50;93.40;;;;;;5067153;28;20586;-68
2022/08/22 06:12:56;;;;;;;4.28;3.10;;;17.60;93.40;;;;;;5067318;28;20029;-68
2022/08/22 06:15:33;;;;;;;3.85;3.08;;;17.70;93.40;;;;;;5067421;28;20281;-68
2022/08/22 06:18:04;;;;;;;3.60;3.20;;;17.70;93.50;;;;;;5064400;28;20043;-68
2022/08/22 06:20:46;;;;;;;4.15;3.17;;;17.80;93.60;;;;;;5066507;28;20104;-68
2022/08/22 06:23:23;;;;;;;7.95;3.92;;;17.90;93.60;;;;;;5072899;28;20032;-68
2022/08/22 06:25:52;;;;;;;6.03;3.53;;;18.00;93.50;;;;;;5074026;28;20028;-68
2022/08/22 06:28:24;;;;;;;7.18;3.72;;;18.10;93.40;;;;;;5072241;28;20492;-68
2022/08/22 06:30:52;;;;;;;11.15;4.07;;;18.20;93.30;;;;;;5073857;28;20032;-67
2022/08/22 06:33:26;;;;;;;6.45;4.00;;;18.30;93.20;;;;;;5069965;28;20082;-68
2022/08/22 06:39:01;;;;;;;8.70;4.20;;;18.40;92.90;;;;;;5068879;28;20455;-68
2022/08/22 06:41:31;;;;;;;7.05;3.65;;;18.40;92.90;;;;;;5081910;28;20032;-68
2022/08/22 06:43:59;;;;;;;5.15;3.50;;;18.60;92.80;;;;;;5071093;28;20947;-68
2022/08/22 06:46:28;;;;;;;4.30;3.40;;;18.60;92.90;;;;;;5070821;28;20427;-68
2022/08/22 06:48:55;;;;;;;4.80;3.75;;;18.70;93.00;;;;;;5067426;28;20447;-68
2022/08/22 06:51:25;;;;;;;7.50;4.75;;;18.80;93.10;;;;;;5070249;28;20032;-68
2022/08/22 06:53:55;;;;;;;6.10;4.25;;;18.90;93.00;;;;;;5065202;28;20035;-68
2022/08/22 06:56:34;;;;;;;5.30;3.90;;;19.00;92.70;;;;;;5072312;28;20472;-68
2022/08/22 06:59:06;;;;;;;5.95;4.72;;;19.00;92.50;;;;;;5070672;28;20037;-68
2022/08/22 07:01:50;;;;;;;8.32;4.20;;;19.20;92.40;;;;;;5069050;28;20030;-68
2022/08/22 07:04:17;;;;;;;5.63;3.85;;;19.30;92.30;;;;;;5069613;28;20028;-68
2022/08/22 07:06:48;;;;;;;7.45;4.43;;;19.40;92.00;;;;;;5067447;28;20029;-68
2022/08/22 07:09:36;;;;;;;5.80;4.40;;;19.50;91.60;;;;;;5073372;28;20039;-68
2022/08/22 07:12:24;;;;;;;4.82;4.30;;;19.60;91.40;;;;;;5064097;28;21006;-68
2022/08/22 07:14:53;;;;;;;6.30;4.30;;;19.80;91.10;;;;;;5071566;28;20036;-68
2022/08/22 07:17:25;;;;;;;4.18;3.75;;;19.90;90.90;;;;;;5068510;28;20035;-68
2022/08/22 07:20:16;;;;;;;5.15;4.25;;;20.00;90.80;;;;;;5070063;28;20581;-68
2022/08/22 07:22:56;;;;;;;5.32;4.10;;;20.10;90.70;;;;;;5073063;28;20066;-68
2022/08/22 07:25:23;;;;;;;4.95;3.92;;;20.20;90.60;;;;;;5069489;28;20062;-68
2022/08/22 07:28:01;;;;;;;6.68;3.78;;;20.30;90.40;;;;;;5066155;28;20484;-68
2022/08/22 07:30:55;;;;;;;5.75;3.70;;;20.40;90.50;;;;;;5065856;28;20024;-69
2022/08/22 07:33:43;;;;;;;6.72;4.07;;;20.50;90.40;;;;;;5061467;28;20038;-68
2022/08/22 07:36:35;;;;;;;5.03;3.90;;;20.60;90.50;;;;;;5067520;28;20036;-68
2022/08/22 07:39:31;;;;;;;4.20;3.58;;;20.70;90.00;;;;;;5063509;28;20060;-68
2022/08/22 07:42:13;;;;;;;5.80;3.60;;;20.80;89.50;;;;;;5074449;28;20032;-68
2022/08/22 07:45:29;;;;;;;9.13;4.72;;;20.90;89.00;;;;;;5079927;28;20028;-68
2022/08/22 07:48:27;;;;;;;9.52;6.32;;;21.00;88.80;;;;;;5066924;28;20067;-68
2022/08/22 07:51:07;;;;;;;9.00;4.80;;;21.10;88.90;;;;;;5065755;28;20112;-68
2022/08/22 07:53:53;;;;;;;7.47;3.90;;;21.20;88.70;;;;;;5068452;28;20028;-68
2022/08/22 07:56:23;;;;;;;;;;;21.30;89.00;;;;;;5076399;28;20043;-68
2022/08/22 07:58:58;;;;;;;6.20;3.75;;;21.40;88.90;;;;;;5077395;28;19916;-68
2022/08/22 08:01:25;;;;;;;4.55;3.60;;;21.50;88.70;;;;;;5073096;28;20528;-68
2022/08/22 08:03:58;;;;;;;4.25;3.00;;;21.60;88.00;;;;;;5075011;28;20659;-68
2022/08/22 08:06:25;;;;;;;7.45;3.50;;;21.60;88.00;;;;;;5073220;28;20055;-68
2022/08/22 08:08:52;;;;;;;4.63;2.97;;;21.80;87.50;;;;;;5077756;28;20120;-68
2022/08/22 08:11:22;;;;;;;7.47;3.00;;;21.80;86.70;;;;;;5075691;28;20055;-69
2022/08/22 08:14:04;;;;;;;3.90;3.10;;;21.90;86.10;;;;;;5078079;28;20051;-68
2022/08/22 08:16:59;;;;;;;7.07;3.15;;;22.00;85.70;;;;;;5079855;28;20085;-69
2022/08/22 08:19:26;;;;;;;4.93;2.60;;;22.00;85.00;;;;;;5084303;28;20036;-68
2022/08/22 08:21:54;;;;;;;3.72;2.58;;;22.10;84.40;;;;;;5066650;28;20050;-67
2022/08/22 08:24:31;;;;;;;7.68;2.47;;;22.20;81.50;;;;;;5072552;28;20484;-66
2022/08/22 08:29:55;;;;;;;4.25;1.92;;;22.30;81.30;;;;;;5064973;28;20117;-68
2022/08/22 08:32:28;;;;;;;3.83;2.28;;;22.40;80.90;;;;;;5062090;28;20032;-68
2022/08/22 08:34:53;;;;;;;5.85;2.00;;;22.50;81.30;;;;;;5069024;28;20905;-68
2022/08/22 08:37:28;;;;;;;3.90;2.30;;;22.50;80.40;;;;;;5074963;28;20032;-69
2022/08/22 08:39:58;;;;;;;2.92;1.90;;;22.60;78.40;;;;;;5070598;28;20530;-69
2022/08/22 08:45:41;;;;;;;2.88;1.65;;;22.70;71.70;;;;;;5076084;28;20043;-68
2022/08/22 08:48:37;;;;;;;3.50;1.47;;;22.70;68.00;;;;;;5065583;28;20041;-69
2022/08/22 08:51:12;;;;;;;2.30;1.63;;;22.80;69.20;;;;;;5072000;28;20046;-68
2022/08/22 08:53:56;;;;;;;4.68;1.60;;;22.80;69.70;;;;;;5075520;28;20036;-68
2022/08/22 08:57:01;;;;;;;2.45;1.33;;;23.00;69.20;;;;;;5076776;28;20120;-69
2022/08/22 08:59:59;;;;;;;5.25;1.77;;;23.20;66.60;;;;;;5069229;28;20311;-68
2022/08/22 09:02:43;;;;;;;2.80;1.50;;;23.30;66.20;;;;;;5072550;28;20652;-68
2022/08/22 09:05:46;;;;;;;3.15;1.40;;;23.30;63.80;;;;;;5064024;28;20032;-68
2022/08/22 09:08:24;;;;;;;3.10;1.10;;;23.40;65.50;;;;;;5069745;28;20087;-69
2022/08/22 09:11:29;;;;;;;4.10;1.23;;;23.50;64.00;;;;;;5075964;28;20032;-69
2022/08/22 09:13:55;;;;;;;7.85;1.33;;;23.60;61.10;;;;;;5077489;28;20040;-69
2022/08/22 09:16:49;;;;;;;3.92;1.15;;;23.60;60.50;;;;;;5075167;28;20036;-69
2022/08/22 09:19:39;;;;;;;2.92;1.10;;;23.60;59.20;;;;;;5071674;28;20028;-69
2022/08/22 09:22:18;;;;;;;3.90;1.45;;;23.70;60.50;;;;;;5067276;28;20036;-69
2022/08/22 09:25:10;;;;;;;1.58;1.02;;;23.90;59.70;;;;;;5063089;28;20392;-70
2022/08/22 09:27:47;;;;;;;2.70;1.15;;;23.90;60.00;;;;;;5069341;28;20074;-69
2022/08/22 09:30:18;;;;;;;5.35;1.30;;;24.00;60.00;;;;;;5074171;28;20143;-69
2022/08/22 09:33:02;;;;;;;2.92;1.55;;;24.10;59.70;;;;;;5069812;28;20055;-69
2022/08/22 09:35:30;;;;;;;3.08;1.73;;;24.10;60.80;;;;;;5074423;28;20124;-69
2022/08/22 09:38:30;;;;;;;4.22;1.98;;;24.10;59.30;;;;;;5067124;28;20120;-69
2022/08/22 09:41:14;;;;;;;3.45;1.63;;;24.10;60.70;;;;;;5063846;28;20048;-69
2022/08/22 09:44:01;;;;;;;2.67;1.52;;;24.10;60.80;;;;;;5065512;28;20107;-69
2022/08/22 09:46:36;;;;;;;4.20;1.40;;;24.00;59.10;;;;;;5065136;28;20031;-69
2022/08/22 09:49:26;;;;;;;4.47;1.15;;;24.10;60.30;;;;;;5068923;28;20086;-68
2022/08/22 09:52:04;;;;;;;6.03;1.67;;;24.20;61.40;;;;;;5066680;28;20096;-69
2022/08/22 09:54:42;;;;;;;2.42;1.50;;;24.20;61.20;;;;;;5072737;28;20028;-69
2022/08/22 09:57:14;;;;;;;2.78;1.58;;;24.30;61.30;;;;;;5070702;28;20036;-69
2022/08/22 10:00:12;;;;;;;3.13;1.67;;;24.30;62.00;;;;;;5070432;28;20048;-69
2022/08/22 10:03:00;;;;;;;6.32;1.85;;;24.40;61.50;;;;;;5065295;28;20105;-69
2022/08/22 10:06:00;;;;;;;3.55;1.70;;;24.40;60.00;;;;;;5075023;28;20063;-69
2022/08/22 10:08:49;;;;;;;5.40;1.63;;;24.40;58.90;;;;;;5075105;28;20044;-69
2022/08/22 10:11:30;;;;;;;5.43;1.40;;;24.50;59.10;;;;;;5071178;28;20041;-69
2022/08/22 10:14:12;;;;;;;5.28;1.85;;;24.50;60.60;;;;;;5068903;28;20749;-69
2022/08/22 10:16:53;;;;;;;4.45;1.75;;;24.60;60.20;;;;;;5073459;28;20047;-68
2022/08/22 10:19:38;;;;;;;3.53;1.40;;;24.60;59.20;;;;;;5065837;28;20036;-69
2022/08/22 10:22:32;;;;;;;5.18;1.60;;;24.70;59.20;;;;;;5070808;28;20053;-69
2022/08/22 10:25:37;;;;;;;7.88;1.67;;;24.70;58.10;;;;;;5068505;28;20421;-68
2022/08/22 10:28:18;;;;;;;6.85;1.77;;;24.80;56.20;;;;;;5078019;28;20179;-69
2022/08/22 10:30:49;;;;;;;3.58;1.50;;;24.70;56.60;;;;;;5084181;28;20020;-68
2022/08/22 10:33:15;;;;;;;4.13;1.40;;;24.80;58.10;;;;;;5076043;28;20116;-69
2022/08/22 10:35:50;;;;;;;2.58;1.30;;;24.80;58.50;;;;;;5074178;28;20621;-69
2022/08/22 10:38:47;;;;;;;2.07;1.13;;;24.90;58.00;;;;;;5068938;28;20077;-69
2022/08/22 10:41:31;;;;;;;;;;;25.00;57.90;;;;;;5063467;28;20550;-70
2022/08/22 10:44:09;;;;;;;6.20;1.70;;;25.10;57.70;;;;;;5076156;28;19920;-70
2022/08/22 10:46:39;;;;;;;5.22;1.30;;;25.10;57.60;;;;;;5077676;28;20036;-70
2022/08/22 10:49:32;;;;;;;6.03;1.27;;;25.20;56.30;;;;;;5069989;28;20036;-70
2022/08/22 10:52:00;;;;;;;4.38;1.60;;;25.30;56.10;;;;;;5066840;28;20059;-69
2022/08/22 10:54:39;;;;;;;1.92;0.98;;;25.30;55.20;;;;;;5068520;28;20028;-70
2022/08/22 10:57:42;;;;;;;4.28;1.40;;;25.30;55.70;;;;;;5065019;28;20029;-69
2022/08/22 11:00:27;;;;;;;4.85;1.40;;;25.50;56.50;;;;;;5075445;28;20040;-70
2022/08/22 11:03:10;;;;;;;4.60;1.33;;;25.60;54.60;;;;;;5062371;28;20506;-70
2022/08/22 11:05:45;;;;;;;2.47;1.27;;;25.60;55.20;;;;;;5077681;28;20731;-70
2022/08/22 11:08:49;;;;;;;3.15;1.27;;;25.70;55.50;;;;;;5074792;28;20119;-69
2022/08/22 11:11:36;;;;;;;2.58;1.30;;;25.70;54.30;;;;;;5068283;28;20036;-70
2022/08/22 11:14:20;;;;;;;2.80;1.20;;;25.60;53.90;;;;;;5065670;28;20047;-69
2022/08/22 11:17:01;;;;;;;3.50;1.17;;;25.50;53.20;;;;;;5070480;28;20028;-69
2022/08/22 11:19:40;;;;;;;3.67;1.23;;;25.60;55.40;;;;;;5066509;28;20052;-70
2022/08/22 11:22:43;;;;;;;3.17;1.35;;;25.60;52.70;;;;;;5070407;28;20029;-70
2022/08/22 11:25:40;;;;;;;4.22;1.10;;;25.60;54.40;;;;;;5075387;28;20499;-69
2022/08/22 11:28:35;;;;;;;;;;;25.70;52.20;;;;;;5068203;28;20024;-69
2022/08/22 11:31:26;;;;;;;3.72;1.20;;;25.80;51.60;;;;;;5057633;28;19912;-69
2022/08/22 11:34:08;;;;;;;5.80;1.50;;;25.70;52.00;;;;;;5077430;28;20024;-69
2022/08/22 11:36:50;;;;;;;3.58;1.00;;;25.70;52.90;;;;;;5064678;28;20028;-69
2022/08/22 11:39:44;;;;;;;2.65;0.93;;;25.70;51.00;;;;;;5064646;28;20036;-69
2022/08/22 11:42:21;;;;;;;2.40;1.02;;;25.80;51.30;;;;;;5070341;28;20039;-70
2022/08/22 11:44:56;;;;;;;4.35;1.30;;;25.80;52.00;;;;;;5070129;28;20030;-69
2022/08/22 11:47:29;;;;;;;2.35;1.15;;;25.90;51.80;;;;;;5070098;28;20036;-70
2022/08/22 11:50:17;;;;;;;3.42;1.20;;;25.90;51.90;;;;;;5066618;28;20051;-69
2022/08/22 11:53:23;;;;;;;4.82;1.30;;;25.90;49.50;;;;;;5067349;28;20055;-69
2022/08/22 11:56:15;;;;;;;3.35;1.40;;;25.80;50.10;;;;;;5059460;28;20496;-69
2022/08/22 11:58:53;;;;;;;4.57;1.20;;;25.90;50.00;;;;;;5061589;28;20035;-70
2022/08/22 12:01:27;;;;;;;4.10;1.40;;;25.80;49.00;;;;;;5070610;28;20115;-69
2022/08/22 12:04:22;;;;;;;3.28;1.30;;;25.90;50.10;;;;;;5067636;28;20554;-70
2022/08/22 12:07:06;;;;;;;2.55;1.15;;;26.00;50.60;;;;;;5064312;28;20039;-69
2022/08/22 12:09:50;;;;;;;4.22;1.17;;;26.10;49.30;;;;;;5070670;28;20126;-70
2022/08/22 12:12:31;;;;;;;2.22;1.08;;;26.20;50.60;;;;;;5064414;28;20039;-69
2022/08/22 12:15:19;;;;;;;2.83;1.17;;;26.20;50.10;;;;;;5067590;28;20084;-69
2022/08/22 12:18:25;;;;;;;2.08;1.10;;;26.40;49.80;;;;;;5060304;28;20024;-70
2022/08/22 12:21:05;;;;;;;3.90;1.10;;;26.50;48.20;;;;;;5068662;28;20055;-69
2022/08/22 12:24:05;;;;;;;2.70;1.00;;;26.40;47.40;;;;;;5071539;28;20020;-69
2022/08/22 12:27:07;;;;;;;2.60;0.90;;;26.40;47.40;;;;;;5067509;28;20089;-70
2022/08/22 12:29:54;;;;;;;2.38;1.08;;;26.30;49.30;;;;;;5073840;28;20157;-70
2022/08/22 12:32:48;;;;;;;2.60;1.20;;;26.30;49.00;;;;;;5074351;28;20040;-70
2022/08/22 12:35:29;;;;;;;2.10;0.88;;;26.20;49.00;;;;;;5074549;28;20116;-69
2022/08/22 12:38:15;;;;;;;3.42;1.17;;;26.20;49.20;;;;;;5074069;28;20480;-71
2022/08/22 12:40:40;;;;;;;;;;;26.20;48.30;;;;;;5079265;28;20069;-70
2022/08/22 12:43:35;;;;;;;3.67;1.38;;;26.30;50.20;;;;;;5080469;28;20494;-69
2022/08/22 12:46:15;;;;;;;2.70;1.20;;;26.30;48.50;;;;;;5078878;28;20113;-69
2022/08/22 12:49:05;;;;;;;2.50;1.00;;;26.20;48.30;;;;;;5071366;28;20669;-68
2022/08/22 12:51:37;;;;;;;3.00;1.30;;;26.20;50.40;;;;;;5061933;28;20471;-69
2022/08/22 12:54:13;;;;;;;2.22;1.13;;;26.30;46.80;;;;;;5060977;28;20091;-69
2022/08/22 12:56:57;;;;;;;3.03;1.13;;;26.20;47.30;;;;;;5064324;28;20040;-69
2022/08/22 12:59:30;;;;;;;4.60;1.23;;;26.20;48.30;;;;;;5070301;28;20226;-70
2022/08/22 13:02:01;;;;;;;3.03;1.00;;;26.20;47.60;;;;;;5066119;28;20040;-70
2022/08/22 13:04:33;;;;;;;3.08;1.10;;;26.20;48.40;;;;;;5067489;28;20494;-69
2022/08/22 13:07:01;;;;;;;2.47;0.80;;;26.00;46.60;;;;;;5063733;28;20060;-69
2022/08/22 13:09:32;;;;;;;3.35;0.93;;;26.00;47.20;;;;;;5067458;28;20024;-70
2022/08/22 13:12:13;;;;;;;7.80;1.10;;;25.90;47.60;;;;;;5062167;28;20400;-69
2022/08/22 13:14:39;;;;;;;2.22;1.13;;;25.80;46.80;;;;;;5061571;28;20029;-69
2022/08/22 13:17:13;;;;;;;4.97;1.25;;;25.80;48.10;;;;;;5073330;28;20111;-70
2022/08/22 13:19:58;;;;;;;1.65;0.80;;;25.80;49.10;;;;;;5076271;28;20024;-69
2022/08/22 13:22:27;;;;;;;2.38;1.10;;;25.90;49.00;;;;;;5080065;28;20059;-69
2022/08/22 13:25:01;;;;;;;2.83;1.10;;;25.80;48.10;;;;;;5071820;28;20151;-69
2022/08/22 13:27:33;;;;;;;3.58;1.15;;;25.80;49.40;;;;;;5065635;28;20052;-69
2022/08/22 13:30:07;;;;;;;1.52;1.05;;;25.80;49.20;;;;;;5072390;28;20514;-69
2022/08/22 13:32:43;;;;;;;2.50;1.13;;;25.80;48.00;;;;;;5073477;28;20397;-69
2022/08/22 13:35:16;;;;;;;2.95;1.00;;;25.90;49.30;;;;;;5073502;28;20036;-69
2022/08/22 13:37:45;;;;;;;4.65;1.40;;;26.00;48.30;;;;;;5073061;28;20043;-70
2022/08/22 13:40:20;;;;;;;4.32;1.33;;;25.90;46.70;;;;;;5072432;28;20040;-69
2022/08/22 13:42:49;;;;;;;1.88;1.15;;;25.90;48.00;;;;;;5068852;28;20025;-70
2022/08/22 13:45:24;;;;;;;4.63;1.10;;;25.90;48.20;;;;;;5071756;28;20100;-69
2022/08/22 13:47:57;;;;;;;2.08;1.10;;;25.90;46.80;;;;;;5066893;28;20032;-69
2022/08/22 13:50:27;;;;;;;5.32;1.50;;;25.90;48.50;;;;;;5073530;28;20082;-69
2022/08/22 13:53:04;;;;;;;5.18;1.60;;;25.80;47.90;;;;;;5068458;28;20557;-69
2022/08/22 13:55:37;;;;;;;3.55;1.50;;;25.80;48.90;;;;;;5073373;28;20214;-69
2022/08/22 13:58:36;;;;;;;3.35;1.40;;;25.80;49.30;;;;;;5070117;28;20115;-69
2022/08/22 14:01:21;;;;;;;3.13;1.08;;;25.80;49.10;;;;;;5069047;28;20029;-70
2022/08/22 14:03:54;;;;;;;2.28;1.13;;;25.90;49.40;;;;;;5069443;28;20027;-69
2022/08/22 14:06:33;;;;;;;2.25;1.15;;;25.80;49.20;;;;;;5067265;28;20086;-69
2022/08/22 14:09:10;;;;;;;2.13;1.30;;;25.70;47.80;;;;;;5065028;28;20040;-70
2022/08/22 14:11:42;;;;;;;3.40;1.23;;;25.60;47.80;;;;;;5066453;28;20035;-70
2022/08/22 14:14:09;;;;;;;4.38;1.30;;;25.70;48.30;;;;;;5070560;28;20133;-69